Terminal Aerodrome Forecast
Issued by NWS North Platte, NE

Home | Current Version | Previous Version | Text Only | Print | Product List | Glossary On
Versions: 1 2 3 4 5 6 7 8 9 10 11 12 13 14 15 16 17 18 19 20 21 22 23
000
FTUS43 KLBF 060500
TAFVTN
TAF
KVTN 060520Z 0606/0706 11006KT P6SM BKN025 OVC035
     FM060700 14009KT 5SM -SHRA BR OVC015
     FM061000 13010KT 3SM -DZ BR OVC008
     FM061500 14012KT P6SM OVC015
     FM061800 16012KT P6SM -SHRA OVC035 PROB30 0622/0702 3SM +TSRA
      OVC020CB
     FM070300 17012KT P6SM -SHRA OVC020=

USA.gov is the U.S. government's official web portal to all federal, state and local government web resources and services.